Météo Nord-Pas-de-Calais   La météo au plus près de chez vous

Station météorologique

Observations météo à Steenvoorde (59580)

59580003 42 m Dernier relevé à 15:12
21.5°C
Humidité 89 % Vent 36 km/h

Journée consultée

Vendredi 4 Septembre 2026

Synthèse de la journée

Périodes de référence en UTC

Température maximale

22.6°C

à 12:00

06h 06h

Température minimale

19.6°C

à 14:30

18h 18h

Rafale maximale

64 km/h

à 11:42

00h 00h

Précipitations

0.4 mm

Cumul quotidien

06h 06h

Graphiques de la journée

Heure locale Réduire

Données détaillées

Relevés météo

Pas de 6 minutes Afficher les relevés infra-horaires
Relevés météo détaillés à Steenvoorde pour le Vendredi 4 Septembre 2026
Heure Température °C Point de rosée °C Humidité % Vent moyen (raf.), km/h Précipitations mm
15:12 21.5 °C 16.7 °C 74 % 27 km/h (41 km/h) 0 mm0 mm
15:06 21.6 °C 17.6 °C 78 % 24 km/h (38 km/h) 0 mm0 mm
15:00 21.2 °C 18 °C 82 % 26 km/h (36 km/h) 0 mm0.4 mm
14:54 20.9 °C 18.3 °C 85 % 28 km/h (39 km/h) 0 mm0 mm
14:48 20.7 °C 18.3 °C 86 % 31 km/h (43 km/h) 0 mm0 mm
14:42 20.4 °C 18.3 °C 88 % 31 km/h (44 km/h) 0 mm0 mm
14:36 19.8 °C 18.5 °C 92 % 33 km/h (52 km/h) 0 mm0 mm
14:30 19.6 °C 18.6 °C 94 % 31 km/h (52 km/h) 0.4 mm0 mm
14:24 20.7 °C 19.7 °C 94 % 31 km/h (46 km/h) 0 mm0 mm
14:18 20.7 °C 19.2 °C 91 % 31 km/h (44 km/h) 0 mm0 mm
14:12 21.1 °C 19.2 °C 89 % 36 km/h (53 km/h) 0 mm0 mm
14:06 21.2 °C 18.9 °C 87 % 37 km/h (53 km/h) 0 mm0 mm
14:00 21.5 °C 19.1 °C 86 % 31 km/h (54 km/h) 0 mm0 mm
13:54 21.4 °C 18.8 °C 85 % 34 km/h (54 km/h) 0 mm0 mm
13:48 21.4 °C 18.8 °C 85 % 33 km/h (46 km/h) 0 mm0 mm
13:42 21.4 °C 18.8 °C 85 % 34 km/h (48 km/h) 0 mm0 mm
13:36 21.6 °C 19 °C 85 % 30 km/h (48 km/h) 0 mm0 mm
13:30 21.3 °C 19 °C 87 % 31 km/h (52 km/h) 0 mm0 mm
13:24 21.2 °C 18.8 °C 86 % 32 km/h (48 km/h) 0 mm0 mm
13:18 21.2 °C 18.8 °C 86 % 35 km/h (50 km/h) 0 mm0 mm
13:12 21.4 °C 18.6 °C 84 % 33 km/h (49 km/h) 0 mm0 mm
13:06 21.5 °C 18.7 °C 84 % 31 km/h (46 km/h) 0 mm0 mm
13:00 21.6 °C 18.6 °C 83 % 32 km/h (49 km/h) 0 mm0 mm
12:54 21.2 °C 18.4 °C 84 % 34 km/h (54 km/h) 0 mm0 mm
12:48 21.1 °C 18.3 °C 84 % 35 km/h (54 km/h) 0 mm0 mm
12:42 21.4 °C 18.2 °C 82 % 35 km/h (50 km/h) 0 mm0 mm
12:36 21.5 °C 18.1 °C 81 % 36 km/h (50 km/h) 0 mm0 mm
12:30 21.9 °C 18.1 °C 79 % 35 km/h (49 km/h) 0 mm0 mm
12:24 22.1 °C 18.3 °C 79 % 34 km/h (48 km/h) 0 mm0 mm
12:18 22 °C 18.4 °C 80 % 35 km/h (52 km/h) 0 mm0 mm
12:12 21.7 °C 18.3 °C 81 % 34 km/h (52 km/h) 0 mm0 mm
12:06 21.8 °C 18.2 °C 80 % 34 km/h (59 km/h) 0 mm0 mm
12:00 21.9 °C 18.3 °C 80 % 35 km/h (59 km/h) 0 mm0 mm
11:54 22.1 °C 18.5 °C 80 % 37 km/h (51 km/h) 0 mm0 mm
11:48 22.1 °C 18.5 °C 80 % 43 km/h (64 km/h) 0 mm0 mm
11:42 22.2 °C 18.2 °C 78 % 44 km/h (64 km/h) 0 mm0 mm
11:36 22.5 °C 18.5 °C 78 % 35 km/h (57 km/h) 0 mm0 mm
11:30 22.4 °C 19 °C 81 % 36 km/h (56 km/h) 0 mm0 mm
11:24 21.8 °C 18.6 °C 82 % 39 km/h (57 km/h) 0 mm0 mm
11:18 21.8 °C 18.6 °C 82 % 41 km/h (57 km/h) 0 mm0 mm
11:12 21.9 °C 18.7 °C 82 % 37 km/h (53 km/h) 0 mm0 mm
11:06 21.9 °C 19.1 °C 84 % 37 km/h (55 km/h) 0 mm0 mm
11:00 21.9 °C 18.9 °C 83 % 43 km/h (58 km/h) 0 mm0 mm
10:54 21.7 °C 18.7 °C 83 % 40 km/h (58 km/h) 0 mm0 mm
10:48 21.9 °C 19.1 °C 84 % 32 km/h (49 km/h) 0 mm0 mm
10:42 21.7 °C 19.4 °C 87 % 33 km/h (55 km/h) 0 mm0 mm
10:36 21.5 °C 19.1 °C 86 % 32 km/h (55 km/h) 0 mm0 mm
10:30 21.5 °C 19.4 °C 88 % 33 km/h (46 km/h) 0 mm0 mm
10:24 21.4 °C 19.3 °C 88 % 32 km/h (43 km/h) 0 mm0 mm
10:18 21.2 °C 19.3 °C 89 % 32 km/h (51 km/h) 0 mm0 mm
10:12 21 °C 19.1 °C 89 % 33 km/h (51 km/h) 0 mm0 mm
10:06 20.7 °C 19 °C 90 % 30 km/h (42 km/h) 0 mm0 mm
10:00 20.7 °C 18.8 °C 89 % 28 km/h (45 km/h) 0 mm0 mm
09:54 20.8 °C 18.9 °C 89 % 28 km/h (46 km/h) 0 mm0 mm
09:48 20.9 °C 18.8 °C 88 % 28 km/h (45 km/h) 0 mm0 mm
09:42 20.7 °C 18.8 °C 89 % 28 km/h (45 km/h) 0 mm0 mm
09:36 20.7 °C 18.8 °C 89 % 31 km/h (53 km/h) 0 mm0 mm
09:30 20.7 °C 18.8 °C 89 % 33 km/h (53 km/h) 0 mm0 mm
09:24 20.8 °C 18.7 °C 88 % 33 km/h (49 km/h) 0 mm0 mm
09:18 20.8 °C 18.7 °C 88 % 33 km/h (49 km/h) 0 mm0 mm
09:12 20.8 °C 18.7 °C 88 % 32 km/h (44 km/h) 0 mm0 mm
09:06 20.8 °C 18.7 °C 88 % 32 km/h (47 km/h) 0 mm0 mm
09:00 20.9 °C 18.8 °C 88 % 33 km/h (52 km/h) 0 mm0 mm
08:54 20.9 °C 18.8 °C 88 % 33 km/h (52 km/h) 0 mm0 mm
08:48 20.8 °C 18.7 °C 88 % 32 km/h (50 km/h) 0 mm0 mm
08:42 20.7 °C 18.8 °C 89 % 32 km/h (50 km/h) 0 mm0 mm
08:36 20.6 °C 18.9 °C 90 % 32 km/h (43 km/h) 0 mm0 mm
08:30 20.4 °C 18.9 °C 91 % 32 km/h (43 km/h) 0 mm0 mm
08:24 20.3 °C 19.1 °C 93 % 30 km/h (40 km/h) 0 mm0 mm
08:18 20.3 °C 19.1 °C 93 % 31 km/h (40 km/h) 0 mm0 mm
08:12 20.2 °C 19 °C 93 % 32 km/h (43 km/h) 0 mm0 mm
08:06 20 °C 19 °C 94 % 30 km/h (46 km/h) 0 mm0 mm
08:00 20.1 °C 19.1 °C 94 % 31 km/h (46 km/h) 0 mm0 mm
07:54 20.3 °C 19 °C 92 % 31 km/h (41 km/h) 0 mm0 mm
07:48 20.3 °C 18.8 °C 91 % 30 km/h (40 km/h) 0 mm0 mm
07:42 20.2 °C 18.7 °C 91 % 30 km/h (46 km/h) 0 mm0 mm
07:36 20.2 °C 18.7 °C 91 % 30 km/h (45 km/h) 0 mm0 mm
07:30 20.2 °C 18.7 °C 91 % 31 km/h (40 km/h) 0 mm0 mm
07:24 20.2 °C 18.7 °C 91 % 30 km/h (40 km/h) 0 mm0 mm
07:18 20 °C 18.7 °C 92 % 28 km/h (37 km/h) 0 mm0 mm
07:12 20.1 °C 18.8 °C 92 % 30 km/h (40 km/h) 0 mm0 mm
07:06 20.1 °C 18.8 °C 92 % 28 km/h (40 km/h) 0 mm0 mm
07:00 20.2 °C 18.9 °C 92 % 27 km/h (37 km/h) 0 mm0 mm
06:54 20.3 °C 18.8 °C 91 % 28 km/h (43 km/h) 0 mm0 mm
06:48 20.4 °C 18.9 °C 91 % 30 km/h (45 km/h) 0 mm0 mm
06:42 20.4 °C 18.9 °C 91 % 30 km/h (45 km/h) 0 mm0 mm
06:36 20.5 °C 18.8 °C 90 % 27 km/h (40 km/h) 0 mm0 mm
06:30 20.5 °C 18.8 °C 90 % 24 km/h (35 km/h) 0 mm0 mm
06:24 20.4 °C 18.9 °C 91 % 24 km/h (36 km/h) 0 mm0 mm
06:18 20.4 °C 19.1 °C 92 % 24 km/h (36 km/h) 0 mm0 mm
06:12 20.3 °C 19.1 °C 93 % 23 km/h (35 km/h) 0 mm0 mm
06:06 20.2 °C 19 °C 93 % 24 km/h (35 km/h) 0 mm0 mm
06:00 20.2 °C 19 °C 93 % 24 km/h (35 km/h) 0 mm0 mm
05:54 20.2 °C 19 °C 93 % 22 km/h (35 km/h) 0 mm0 mm
05:48 20.1 °C 19.1 °C 94 % 18 km/h (25 km/h) 0 mm0 mm
05:42 20 °C 19 °C 94 % 20 km/h (32 km/h) 0 mm0 mm
05:36 20.1 °C 19.1 °C 94 % 22 km/h (33 km/h) 0 mm0 mm
05:30 20.2 °C 19 °C 93 % 23 km/h (35 km/h) 0 mm0 mm
05:24 20.2 °C 19 °C 93 % 22 km/h (31 km/h) 0 mm0 mm
05:18 20.1 °C 18.9 °C 93 % 23 km/h (31 km/h) 0 mm0 mm
05:12 20 °C 18.8 °C 93 % 22 km/h (31 km/h) 0 mm0 mm
05:06 20 °C 18.8 °C 93 % 23 km/h (33 km/h) 0 mm0 mm
05:00 20 °C 18.8 °C 93 % 23 km/h (32 km/h) 0 mm0 mm
04:54 19.9 °C 18.9 °C 94 % 22 km/h (29 km/h) 0 mm0 mm
04:48 19.9 °C 18.9 °C 94 % 24 km/h (33 km/h) 0 mm0 mm
04:42 19.9 °C 18.9 °C 94 % 26 km/h (36 km/h) 0 mm0 mm
04:36 19.8 °C 19 °C 95 % 23 km/h (34 km/h) 0 mm0 mm
04:30 19.8 °C 19 °C 95 % 22 km/h (33 km/h) 0 mm0 mm
04:24 19.7 °C 18.9 °C 95 % 22 km/h (31 km/h) 0 mm0 mm
04:18 19.7 °C 18.7 °C 94 % 25 km/h (34 km/h) 0 mm0 mm
04:12 19.7 °C 18.7 °C 94 % 23 km/h (34 km/h) 0 mm0 mm
04:06 19.7 °C 18.7 °C 94 % 23 km/h (31 km/h) 0 mm0 mm
04:00 19.7 °C 18.7 °C 94 % 24 km/h (32 km/h) 0 mm0 mm
03:54 19.7 °C 18.7 °C 94 % 25 km/h (36 km/h) 0 mm0 mm
03:48 19.7 °C 18.5 °C 93 % 24 km/h (36 km/h) 0 mm0 mm
03:42 19.7 °C 18.5 °C 93 % 24 km/h (33 km/h) 0 mm0 mm
03:36 19.8 °C 18.6 °C 93 % 26 km/h (36 km/h) 0 mm0 mm
03:30 19.9 °C 18.7 °C 93 % 26 km/h (37 km/h) 0 mm0 mm
03:24 20 °C 18.7 °C 92 % 25 km/h (39 km/h) 0 mm0 mm
03:18 19.9 °C 18.7 °C 93 % 23 km/h (32 km/h) 0 mm0 mm
03:12 19.9 °C 18.7 °C 93 % 22 km/h (32 km/h) 0 mm0 mm
03:06 19.8 °C 18.5 °C 92 % 22 km/h (33 km/h) 0 mm0 mm
03:00 19.9 °C 18.6 °C 92 % 25 km/h (41 km/h) 0 mm0 mm
02:54 19.9 °C 18.6 °C 92 % 24 km/h (41 km/h) 0 mm0 mm
02:48 19.8 °C 18.5 °C 92 % 21 km/h (32 km/h) 0 mm0 mm
02:42 19.9 °C 18.4 °C 91 % 23 km/h (35 km/h) 0 mm0 mm
02:36 20 °C 18.5 °C 91 % 25 km/h (38 km/h) 0 mm0 mm
02:30 20.1 °C 18.4 °C 90 % 26 km/h (38 km/h) 0 mm0 mm
02:24 20 °C 18.5 °C 91 % 22 km/h (35 km/h) 0 mm0 mm
02:18 20.1 °C 18.6 °C 91 % 23 km/h (37 km/h) 0 mm0 mm
02:12 20.2 °C 18.5 °C 90 % 28 km/h (44 km/h) 0 mm0 mm
02:06 20.3 °C 18.6 °C 90 % 24 km/h (39 km/h) 0 mm0 mm
02:00 20.3 °C 18.6 °C 90 % 23 km/h (35 km/h) 0 mm0 mm
01:54 20.4 °C 18.7 °C 90 % 22 km/h (35 km/h) 0 mm0 mm
01:48 20.5 °C 18.8 °C 90 % 22 km/h (37 km/h) 0 mm0 mm
01:42 20.6 °C 18.9 °C 90 % 24 km/h (39 km/h) 0 mm0 mm
01:36 20.5 °C 19 °C 91 % 24 km/h (39 km/h) 0 mm0 mm
01:30 20.5 °C 19 °C 91 % 24 km/h (38 km/h) 0 mm0 mm
01:24 20.6 °C 19.1 °C 91 % 24 km/h (35 km/h) 0 mm0 mm
01:18 20.6 °C 19.3 °C 92 % 26 km/h (36 km/h) 0 mm0 mm
01:12 20.6 °C 19.3 °C 92 % 27 km/h (43 km/h) 0 mm0 mm
01:06 20.7 °C 19.2 °C 91 % 30 km/h (43 km/h) 0 mm0 mm
01:00 20.8 °C 19.3 °C 91 % 29 km/h (41 km/h) 0 mm0 mm
00:54 20.7 °C 19.4 °C 92 % 27 km/h (40 km/h) 0 mm0 mm
00:48 20.7 °C 19.4 °C 92 % 26 km/h (39 km/h) 0 mm0 mm
00:42 20.8 °C 19.5 °C 92 % 26 km/h (40 km/h) 0 mm0 mm
00:36 20.8 °C 19.5 °C 92 % 26 km/h (40 km/h) 0 mm0 mm
00:30 20.7 °C 19.4 °C 92 % 23 km/h (32 km/h) 0 mm0 mm
00:24 20.8 °C 19.5 °C 92 % 22 km/h (31 km/h) 0 mm0 mm
00:18 20.8 °C 19.5 °C 92 % 23 km/h (33 km/h) 0 mm0 mm
00:12 20.8 °C 19.5 °C 92 % 27 km/h (38 km/h) 0 mm0 mm
00:06 20.8 °C 19.5 °C 92 % 26 km/h (38 km/h) 0 mm0 mm
00:00 20.7 °C 19.4 °C 92 % 23 km/h (33 km/h) 0 mm0 mm

Données via Météo-France

Relevés météo à Steenvoorde

Cette page rassemble les observations de la station de Steenvoorde : température, humidité, vent, précipitations et pression atmosphérique. Les graphiques facilitent le suivi de la journée, tandis que le tableau donne accès aux mesures horaires et infra-horaires disponibles.

Pour replacer ces mesures dans leur contexte, consultez la climatologie de Steenvoorde ainsi que ses normales et records. Retrouvez aussi la carte des observations météo en temps réel.